Time;durP1;ratioP1;P1;durP2;ratioP2;P2;SDS_P1;SDS_P2;PMS_P1;PMS_P2;Temp;Humidity;BMP_temperature;BMP_pressure;BME280_temperature;BME280_humidity;BME280_pressure;Samples;Min_cycle;Max_cycle;Signal;HPM_P1;HPM_P2
2022/06/02 00:02:09;;;;;;;6.50;6.20;;;;;;;18.51;100.00;100738.00;5028565;28;20037;-62
2022/06/02 00:04:43;;;;;;;6.40;6.10;;;;;;;18.50;100.00;100747.09;5031729;28;20028;-62
2022/06/02 00:07:17;;;;;;;6.40;6.10;;;;;;;18.42;100.00;100750.88;5031259;28;20152;-62
2022/06/02 00:09:48;;;;;;;6.43;6.13;;;;;;;18.51;100.00;100751.44;5021203;28;20026;-63
2022/06/02 00:12:24;;;;;;;6.35;6.07;;;;;;;18.40;100.00;100752.97;5028683;28;20025;-63
2022/06/02 00:14:55;;;;;;;6.40;6.10;;;;;;;18.36;100.00;100750.94;5030523;28;20034;-63
2022/06/02 00:17:27;;;;;;;6.90;6.60;;;;;;;18.33;100.00;100749.53;5032966;28;20067;-63
2022/06/02 00:19:55;;;;;;;6.47;6.18;;;;;;;18.30;100.00;100749.97;5032556;28;20030;-62
2022/06/02 00:22:34;;;;;;;6.20;6.00;;;;;;;18.23;100.00;100747.34;5031030;28;20108;-62
2022/06/02 00:25:16;;;;;;;6.65;6.35;;;;;;;18.21;100.00;100762.88;5034816;28;20029;-62
2022/06/02 00:28:11;;;;;;;6.45;6.15;;;;;;;18.14;100.00;100762.09;5034953;28;20021;-62
2022/06/02 00:31:15;;;;;;;6.47;6.18;;;;;;;18.13;100.00;100759.59;5022419;28;20037;-63
2022/06/02 00:34:00;;;;;;;6.55;6.25;;;;;;;18.08;100.00;100772.88;5027894;28;20121;-63
2022/06/02 00:36:40;;;;;;;6.80;6.50;;;;;;;17.97;100.00;100758.28;5038509;28;20041;-63
2022/06/02 00:39:08;;;;;;;6.50;6.20;;;;;;;18.06;100.00;100774.94;5033482;28;20384;-62
2022/06/02 00:41:54;;;;;;;6.47;6.18;;;;;;;18.09;100.00;100775.34;5034529;28;20424;-63
2022/06/02 00:44:44;;;;;;;6.50;6.20;;;;;;;18.06;100.00;100772.25;5034110;28;20109;-62
2022/06/02 00:47:33;;;;;;;6.13;5.93;;;;;;;17.95;100.00;100788.03;5034097;28;20451;-62
2022/06/02 00:50:14;;;;;;;6.63;6.32;;;;;;;17.86;100.00;100781.28;5034315;28;20145;-62
2022/06/02 00:53:00;;;;;;;6.05;5.85;;;;;;;17.79;100.00;100780.50;5026928;28;20056;-63
2022/06/02 00:59:05;;;;;;;6.53;6.22;;;;;;;17.66;100.00;100785.91;5026269;28;20087;-63
2022/06/02 01:01:34;;;;;;;6.28;6.00;;;;;;;17.65;100.00;100793.13;5034013;28;20098;-63
2022/06/02 01:04:03;;;;;;;6.45;6.15;;;;;;;17.60;100.00;100786.75;5021420;28;20068;-63
2022/06/02 01:07:07;;;;;;;6.43;6.13;;;;;;;17.64;100.00;100790.69;5034021;28;20270;-62
2022/06/02 01:09:55;;;;;;;6.45;6.15;;;;;;;17.68;100.00;100779.28;5013842;28;20034;-62
2022/06/02 01:12:39;;;;;;;6.40;6.10;;;;;;;17.64;100.00;100790.69;5033669;28;20034;-62
2022/06/02 01:15:05;;;;;;;6.78;6.47;;;;;;;17.56;100.00;100791.75;5033803;28;20079;-61
2022/06/02 01:18:13;;;;;;;6.40;6.10;;;;;;;17.61;100.00;100801.81;5033803;28;20460;-63
2022/06/02 01:21:00;;;;;;;6.50;6.20;;;;;;;17.58;100.00;100804.94;5015507;28;20057;-63
2022/06/02 01:23:44;;;;;;;6.43;6.13;;;;;;;17.53;100.00;100800.22;5022072;28;20040;-63
2022/06/02 01:26:33;;;;;;;7.15;6.85;;;;;;;17.56;100.00;100801.66;5037061;28;20034;-62
2022/06/02 01:29:40;;;;;;;6.50;6.20;;;;;;;17.48;100.00;100797.38;5029567;28;20481;-62
2022/06/02 01:32:14;;;;;;;6.65;6.35;;;;;;;17.43;100.00;100802.53;5014393;28;20041;-62
2022/06/02 01:34:58;;;;;;;6.70;6.40;;;;;;;17.39;100.00;100799.44;5033136;28;20452;-63
2022/06/02 01:37:30;;;;;;;6.07;5.88;;;;;;;17.30;100.00;100803.41;5026666;28;20037;-62
2022/06/02 01:40:13;;;;;;;6.40;6.10;;;;;;;17.35;100.00;100806.28;5033232;28;20038;-61
2022/06/02 01:42:53;;;;;;;6.43;6.13;;;;;;;17.41;100.00;100799.25;5033435;28;20087;-63
2022/06/02 01:45:35;;;;;;;6.20;6.00;;;;;;;17.22;100.00;100806.31;5021115;28;20094;-63
2022/06/02 01:48:29;;;;;;;6.18;5.97;;;;;;;17.23;100.00;100802.59;5033003;28;20065;-63
2022/06/02 01:51:19;;;;;;;6.45;6.15;;;;;;;17.29;100.00;100809.81;5033206;28;20040;-63
2022/06/02 01:53:50;;;;;;;6.18;5.97;;;;;;;17.34;100.00;100806.50;5031521;28;20120;-62
2022/06/02 01:56:53;;;;;;;6.53;6.22;;;;;;;17.36;100.00;100799.06;5032110;28;20048;-62
2022/06/02 01:59:26;;;;;;;6.20;6.00;;;;;;;17.38;100.00;100797.78;5033904;28;20014;-62
2022/06/02 02:01:51;;;;;;;6.28;6.03;;;;;;;17.33;100.00;100808.34;5031420;28;20065;-62
2022/06/02 02:04:43;;;;;;;6.50;6.20;;;;;;;17.45;100.00;100802.31;5023696;28;20049;-63
2022/06/02 02:07:27;;;;;;;6.18;5.97;;;;;;;17.47;100.00;100797.56;5024287;28;20424;-63
2022/06/02 02:10:20;;;;;;;6.00;5.80;;;;;;;17.47;100.00;100792.19;5027602;28;20103;-62
2022/06/02 02:12:46;;;;;;;6.47;6.18;;;;;;;17.50;100.00;100792.59;5032411;28;20102;-63
2022/06/02 02:15:38;;;;;;;6.18;5.97;;;;;;;17.55;100.00;100799.97;5032521;28;20056;-63
2022/06/02 02:18:29;;;;;;;6.60;6.30;;;;;;;17.54;100.00;100801.03;5032289;28;20434;-63
2022/06/02 02:21:13;;;;;;;6.40;6.10;;;;;;;17.55;100.00;100803.53;5032705;28;20029;-63
2022/06/02 02:24:15;;;;;;;6.35;6.07;;;;;;;17.56;100.00;100791.75;5031287;28;20021;-63
2022/06/02 02:27:16;;;;;;;6.60;6.30;;;;;;;17.51;100.00;100793.41;5022460;28;20038;-63
2022/06/02 02:30:06;;;;;;;6.50;6.20;;;;;;;17.60;100.00;100798.31;5020246;28;20029;-63
2022/06/02 02:33:02;;;;;;;6.13;5.93;;;;;;;17.63;100.00;100797.91;5032076;28;20052;-63
2022/06/02 02:35:40;;;;;;;6.50;6.20;;;;;;;17.70;100.00;100803.25;5020725;28;20397;-63
2022/06/02 02:38:13;;;;;;;6.47;6.18;;;;;;;17.76;100.00;100812.28;5015797;28;20063;-63
2022/06/02 02:40:46;;;;;;;6.38;6.07;;;;;;;17.91;100.00;100799.41;5026950;28;20385;-63
2022/06/02 02:43:40;;;;;;;6.10;5.90;;;;;;;18.13;100.00;100797.19;5041108;28;20159;-63
2022/06/02 02:46:20;;;;;;;6.60;6.30;;;;;;;18.23;100.00;100808.28;5031679;28;20046;-63
2022/06/02 02:49:02;;;;;;;6.30;6.07;;;;;;;18.38;100.00;100814.16;5032409;28;20065;-63
2022/06/02 02:51:38;;;;;;;6.15;5.95;;;;;;;18.64;100.00;100812.28;5036678;28;20013;-62
2022/06/02 02:54:36;;;;;;;6.50;6.20;;;;;;;19.02;100.00;100813.00;5032012;28;20112;-63
2022/06/02 02:57:19;;;;;;;6.50;6.20;;;;;;;19.38;100.00;100818.56;5031471;28;20033;-62
2022/06/02 02:59:56;;;;;;;6.38;6.10;;;;;;;20.05;100.00;100822.03;5032059;28;20120;-63
2022/06/02 03:02:33;;;;;;;6.50;6.20;;;;;;;20.72;100.00;100829.94;5031147;28;20021;-63
2022/06/02 03:05:14;;;;;;;6.70;6.40;;;;;;;21.81;100.00;100828.19;5029903;28;20118;-63
2022/06/02 03:07:40;;;;;;;6.47;6.18;;;;;;;22.76;97.21;100824.69;5032277;28;20029;-63
2022/06/02 03:10:31;;;;;;;6.65;6.35;;;;;;;23.27;93.87;100833.53;5031909;28;20555;-63
2022/06/02 03:13:26;;;;;;;6.60;6.30;;;;;;;23.76;88.75;100830.91;5030463;28;20121;-63
2022/06/02 03:15:59;;;;;;;6.63;6.32;;;;;;;23.96;88.05;100822.97;5009829;28;20038;-63
2022/06/02 03:18:49;;;;;;;6.80;6.50;;;;;;;24.55;84.53;100838.44;5018337;28;20029;-63
2022/06/02 03:21:23;;;;;;;6.78;6.47;;;;;;;25.07;80.86;100826.84;5031738;28;20030;-63
2022/06/02 03:24:02;;;;;;;6.70;6.40;;;;;;;25.62;77.99;100837.13;5030421;28;20040;-63
2022/06/02 03:26:57;;;;;;;6.70;6.40;;;;;;;26.21;74.34;100830.47;5035457;28;20025;-63
2022/06/02 03:29:28;;;;;;;6.65;6.35;;;;;;;26.27;73.63;100828.56;5022838;28;20037;-63
2022/06/02 03:31:56;;;;;;;6.75;6.45;;;;;;;27.08;71.04;100833.13;5031489;28;20030;-64
2022/06/02 03:34:43;;;;;;;6.70;6.40;;;;;;;26.69;70.97;100826.41;5031420;28;20080;-62
2022/06/02 03:37:30;;;;;;;6.70;6.40;;;;;;;27.07;69.35;100829.59;5031250;28;20289;-62
2022/06/02 03:40:04;;;;;;;6.70;6.40;;;;;;;27.99;64.31;100830.00;5031218;28;20033;-63
2022/06/02 03:42:57;;;;;;;6.70;6.40;;;;;;;28.41;63.15;100831.31;5031863;28;20041;-63
2022/06/02 03:45:33;;;;;;;6.90;6.60;;;;;;;27.79;64.19;100824.66;5019707;28;20025;-62
2022/06/02 03:48:23;;;;;;;6.90;6.60;;;;;;;28.41;61.43;100825.03;5029143;28;20032;-63
2022/06/02 03:51:09;;;;;;;6.93;6.63;;;;;;;28.83;59.95;100818.91;5031065;28;20036;-63
2022/06/02 03:54:08;;;;;;;6.90;6.60;;;;;;;29.18;59.92;100823.19;5031086;28;20032;-63
2022/06/02 03:56:45;;;;;;;7.00;6.70;;;;;;;29.89;55.75;100825.00;5025358;28;20033;-61
2022/06/02 03:59:44;;;;;;;7.10;6.80;;;;;;;30.95;52.37;100818.00;5036747;28;20026;-61
2022/06/02 04:02:18;;;;;;;7.00;6.70;;;;;;;29.68;56.59;100821.75;5031272;28;20484;-61
2022/06/02 04:05:18;;;;;;;6.70;6.40;;;;;;;31.03;51.39;100814.56;5034122;28;20091;-61
2022/06/02 04:08:01;;;;;;;7.10;6.80;;;;;;;30.50;52.09;100809.50;5029761;28;20026;-60
2022/06/02 04:10:39;;;;;;;7.13;6.82;;;;;;;31.92;47.26;100814.03;5031057;28;20022;-62
2022/06/02 04:13:38;;;;;;;6.78;6.47;;;;;;;31.56;47.39;100803.03;5032943;28;20116;-60
2022/06/02 04:16:28;;;;;;;6.85;6.55;;;;;;;31.02;49.04;100804.72;5033259;28;20028;-61
2022/06/02 04:21:59;;;;;;;6.90;6.60;;;;;;;32.10;46.28;100815.00;5029161;28;20037;-60
2022/06/02 04:24:49;;;;;;;6.65;6.35;;;;;;;32.23;45.22;100816.84;5027404;28;20025;-59
2022/06/02 04:27:35;;;;;;;7.00;6.70;;;;;;;32.36;44.81;100823.41;5033596;28;20037;-61
2022/06/02 04:30:22;;;;;;;6.82;6.53;;;;;;;32.22;44.28;100831.69;5036827;28;20029;-59
2022/06/02 04:33:16;;;;;;;7.00;6.70;;;;;;;32.50;43.58;100826.09;5036206;28;20032;-60
2022/06/02 04:36:03;;;;;;;7.05;6.75;;;;;;;32.58;43.59;100822.56;5032729;28;20101;-60
2022/06/02 04:38:51;;;;;;;6.97;6.68;;;;;;;32.50;42.95;100820.59;5028344;28;20026;-60
2022/06/02 04:41:31;;;;;;;6.93;6.63;;;;;;;32.84;42.30;100828.19;5026457;28;20243;-61
2022/06/02 04:44:15;;;;;;;6.78;6.47;;;;;;;33.21;41.79;100826.91;5034343;28;20526;-60
2022/06/02 04:47:12;;;;;;;7.00;6.70;;;;;;;33.71;39.99;100824.59;5029159;28;20050;-60
2022/06/02 04:49:55;;;;;;;7.03;6.72;;;;;;;34.03;38.93;100825.25;5033244;28;20086;-59
2022/06/02 04:52:27;;;;;;;;;;;;;;;33.21;39.91;100824.97;5024208;28;20017;-59
2022/06/02 04:54:58;;;;;;;6.90;6.60;;;;;;;32.61;42.20;100828.25;5030184;28;20319;-60
2022/06/02 04:57:30;;;;;;;7.00;6.70;;;;;;;31.13;45.10;100822.56;5031778;28;20495;-60
2022/06/02 05:00:17;;;;;;;6.97;6.68;;;;;;;32.52;42.13;100830.13;5032956;28;20566;-61
2022/06/02 05:02:56;;;;;;;7.00;6.70;;;;;;;33.32;39.75;100830.97;5028659;28;20053;-61
2022/06/02 05:05:39;;;;;;;7.00;6.70;;;;;;;33.93;39.10;100839.31;5032026;28;20493;-65
2022/06/02 05:08:04;;;;;;;6.97;6.68;;;;;;;33.77;38.77;100844.47;5031396;28;20029;-62
2022/06/02 05:10:41;;;;;;;7.18;6.88;;;;;;;34.49;37.33;100843.00;5032796;28;20079;-61
2022/06/02 05:13:18;;;;;;;7.28;6.97;;;;;;;35.08;36.73;100838.44;5029769;28;20029;-60
2022/06/02 05:15:43;;;;;;;7.13;6.82;;;;;;;34.94;36.54;100848.88;5022659;28;20052;-61
2022/06/02 05:18:12;;;;;;;7.10;6.80;;;;;;;35.29;35.90;100845.97;5024653;28;20049;-61
2022/06/02 05:20:43;;;;;;;7.00;6.70;;;;;;;36.12;34.60;100850.72;5033190;28;20060;-61
2022/06/02 05:23:33;;;;;;;7.20;6.90;;;;;;;35.44;35.53;100845.41;5020634;28;20033;-63
2022/06/02 05:26:36;;;;;;;7.20;6.90;;;;;;;36.10;34.73;100844.75;5026249;28;20090;-61
2022/06/02 05:29:04;;;;;;;6.95;6.65;;;;;;;35.95;34.44;100847.00;5022603;28;20164;-63
2022/06/02 05:31:52;;;;;;;7.32;7.03;;;;;;;35.36;35.34;100851.75;5027286;28;20519;-61
2022/06/02 05:34:36;;;;;;;7.40;7.10;;;;;;;36.40;32.75;100839.94;5023021;28;20056;-63
2022/06/02 05:37:36;;;;;;;7.28;6.97;;;;;;;36.63;31.84;100843.06;5023095;28;20073;-62
2022/06/02 05:40:41;;;;;;;7.18;6.88;;;;;;;36.40;32.81;100839.94;5023485;28;20092;-63
2022/06/02 05:43:45;;;;;;;7.05;6.75;;;;;;;37.07;31.49;100846.94;5024089;28;20413;-63
2022/06/02 05:46:35;;;;;;;7.00;6.70;;;;;;;37.58;30.04;100850.94;5020713;28;20132;-61
2022/06/02 05:49:13;;;;;;;7.40;7.10;;;;;;;37.40;30.19;100844.06;5023219;28;20036;-62
2022/06/02 05:52:04;;;;;;;7.30;7.00;;;;;;;37.16;30.30;100844.84;5021484;28;20513;-62
2022/06/02 05:55:05;;;;;;;7.40;7.10;;;;;;;37.53;29.99;100853.97;5022136;28;20033;-62
2022/06/02 05:57:37;;;;;;;7.18;6.88;;;;;;;37.63;30.28;100847.13;5030113;28;20032;-62
2022/06/02 06:00:06;;;;;;;7.25;6.95;;;;;;;37.24;31.18;100851.41;5021959;28;20091;-63
2022/06/02 06:02:47;;;;;;;7.70;7.40;;;;;;;37.48;30.23;100850.63;5024766;28;20037;-63
2022/06/02 06:05:40;;;;;;;7.50;7.20;;;;;;;38.31;29.63;100849.13;5021948;28;20028;-62
2022/06/02 06:08:32;;;;;;;7.50;7.20;;;;;;;38.03;29.63;100849.91;5013678;28;20055;-61
2022/06/02 06:11:09;;;;;;;7.32;7.03;;;;;;;38.40;29.02;100850.56;5019192;28;20083;-62
2022/06/02 06:13:52;;;;;;;7.05;6.75;;;;;;;39.12;28.48;100863.47;5036941;28;20041;-62
2022/06/02 06:16:25;;;;;;;;;;;;;;;38.27;29.44;100854.56;5018412;28;20716;-62
2022/06/02 06:19:10;;;;;;;7.40;7.10;;;;;;;39.17;28.38;100861.28;5027165;28;19917;-62
2022/06/02 06:22:07;;;;;;;7.28;6.97;;;;;;;39.38;27.64;100855.41;5029609;28;20030;-62
2022/06/02 06:24:35;;;;;;;7.15;6.85;;;;;;;39.14;27.38;100859.19;5025932;28;20108;-62
2022/06/02 06:27:03;;;;;;;7.50;7.20;;;;;;;40.08;26.57;100853.75;5027044;28;20064;-63
2022/06/02 06:29:36;;;;;;;7.18;6.88;;;;;;;38.99;28.01;100857.22;5026544;28;20037;-61
2022/06/02 06:32:04;;;;;;;7.32;7.03;;;;;;;39.61;27.10;100861.09;5018586;28;20083;-62
2022/06/02 06:34:39;;;;;;;7.20;6.90;;;;;;;39.47;26.88;100858.78;5027817;28;20387;-61
2022/06/02 06:37:22;;;;;;;7.15;6.85;;;;;;;38.17;29.26;100855.84;5023194;28;20029;-61
2022/06/02 06:39:48;;;;;;;7.10;6.80;;;;;;;39.64;27.48;100859.56;5023442;28;20064;-63
2022/06/02 06:42:31;;;;;;;7.15;6.85;;;;;;;38.76;28.01;100857.06;5024406;28;20033;-62
2022/06/02 06:45:07;;;;;;;7.13;6.82;;;;;;;38.98;27.81;100858.38;5038728;28;20045;-63
2022/06/02 06:47:39;;;;;;;6.95;6.65;;;;;;;38.66;28.12;100860.34;5032080;28;20092;-62
2022/06/02 06:50:44;;;;;;;7.47;7.18;;;;;;;40.03;26.25;100850.13;5029246;28;20096;-62
2022/06/02 06:53:37;;;;;;;7.20;6.90;;;;;;;40.04;26.05;100853.69;5038276;28;20035;-62
2022/06/02 06:56:17;;;;;;;7.30;7.00;;;;;;;39.09;27.79;100862.25;5031807;28;20033;-62
2022/06/02 06:59:20;;;;;;;7.20;6.90;;;;;;;39.93;26.30;100861.78;5028077;28;20055;-62
2022/06/02 07:02:20;;;;;;;7.40;7.10;;;;;;;39.61;26.58;100861.09;5023812;28;20318;-62
2022/06/02 07:05:12;;;;;;;7.30;7.00;;;;;;;39.93;26.83;100852.63;5019322;28;20150;-61
2022/06/02 07:07:44;;;;;;;7.20;6.90;;;;;;;40.33;26.28;100853.06;5023813;28;20022;-62
2022/06/02 07:10:35;;;;;;;7.07;6.78;;;;;;;40.15;26.01;100851.91;5034247;28;20044;-61
2022/06/02 07:13:10;;;;;;;7.57;7.28;;;;;;;40.71;25.74;100850.56;5027868;28;20036;-62
2022/06/02 07:15:48;;;;;;;7.32;7.03;;;;;;;40.47;26.10;100849.78;5023769;28;20037;-61
2022/06/02 07:18:44;;;;;;;7.30;7.00;;;;;;;40.84;25.52;100850.00;5035099;28;20099;-62
2022/06/02 07:21:16;;;;;;;7.50;7.20;;;;;;;41.37;24.99;100844.50;5028636;28;20024;-64
2022/06/02 07:23:53;;;;;;;7.20;6.90;;;;;;;40.16;25.93;100842.41;5026534;28;20092;-63
2022/06/02 07:26:34;;;;;;;7.22;6.93;;;;;;;40.22;25.83;100845.69;5018001;28;20176;-64
2022/06/02 07:29:05;;;;;;;7.22;6.93;;;;;;;39.89;26.08;100843.44;5025796;28;20033;-62
2022/06/02 07:31:52;;;;;;;7.30;7.00;;;;;;;41.07;24.75;100844.44;5029262;28;20075;-62
2022/06/02 07:34:45;;;;;;;7.45;7.15;;;;;;;40.63;25.00;100848.84;5029675;28;20025;-63
2022/06/02 07:37:15;;;;;;;7.47;7.17;;;;;;;39.94;26.67;100848.69;5029203;28;20440;-62
2022/06/02 07:39:49;;;;;;;7.07;6.78;;;;;;;39.82;26.22;100844.09;5032666;28;20266;-62
2022/06/02 07:42:43;;;;;;;7.22;6.93;;;;;;;39.29;26.92;100849.25;5024333;28;20505;-63
2022/06/02 07:45:17;;;;;;;7.03;6.72;;;;;;;38.42;28.32;100851.03;5030879;28;20031;-62
2022/06/02 07:48:04;;;;;;;7.30;7.00;;;;;;;38.53;28.05;100845.75;5025119;28;20037;-60
2022/06/02 07:50:36;;;;;;;7.32;7.03;;;;;;;38.31;28.28;100841.59;5032441;28;20037;-62
2022/06/02 07:53:37;;;;;;;6.90;6.60;;;;;;;38.39;28.70;100846.19;5024756;28;20022;-62
2022/06/02 07:56:26;;;;;;;6.90;6.60;;;;;;;38.35;28.01;100850.03;5026502;28;20079;-61
2022/06/02 07:59:11;;;;;;;6.97;6.68;;;;;;;36.51;30.55;100844.69;5031211;28;20045;-61
2022/06/02 08:01:58;;;;;;;7.30;7.00;;;;;;;37.38;29.76;100840.03;5030805;28;20018;-61
2022/06/02 08:04:29;;;;;;;7.38;7.07;;;;;;;37.80;29.25;100840.53;5035804;28;20032;-64
2022/06/02 08:07:11;;;;;;;7.30;7.00;;;;;;;38.12;28.88;100841.44;5045747;28;20389;-65
2022/06/02 08:09:56;;;;;;;7.20;6.90;;;;;;;37.37;29.77;100835.66;5029133;28;20048;-64
2022/06/02 08:12:49;;;;;;;7.00;6.70;;;;;;;37.43;29.56;100839.78;5038341;28;20120;-64
2022/06/02 08:15:31;;;;;;;6.95;6.65;;;;;;;35.24;34.19;100830.41;5030647;28;20024;-64
2022/06/02 08:17:59;;;;;;;7.05;6.75;;;;;;;35.37;33.74;100817.50;5028227;28;20024;-64
2022/06/02 08:20:36;;;;;;;7.20;6.90;;;;;;;37.60;30.29;100833.97;5040051;28;20032;-63
2022/06/02 08:23:23;;;;;;;7.22;6.93;;;;;;;35.88;33.10;100824.59;5037282;28;20424;-63
2022/06/02 08:25:55;;;;;;;7.10;6.80;;;;;;;35.50;33.21;100826.72;5028638;28;20587;-64
2022/06/02 08:28:58;;;;;;;7.20;6.90;;;;;;;34.24;35.48;100826.19;5038047;28;20037;-65
2022/06/02 08:31:32;;;;;;;7.00;6.70;;;;;;;34.66;35.10;100831.13;5037457;28;20035;-65
2022/06/02 08:34:21;;;;;;;7.25;6.95;;;;;;;35.56;33.92;100822.59;5031342;28;20060;-64
2022/06/02 08:37:01;;;;;;;6.90;6.60;;;;;;;35.02;34.37;100825.16;5030783;28;20036;-63
2022/06/02 08:40:01;;;;;;;6.85;6.55;;;;;;;35.11;34.38;100817.69;5030640;28;20021;-63
2022/06/02 08:42:50;;;;;;;6.80;6.50;;;;;;;33.67;36.20;100822.78;5037269;28;20025;-63
2022/06/02 08:45:37;;;;;;;7.20;6.90;;;;;;;34.06;35.96;100819.88;5031500;28;20120;-63
2022/06/02 08:48:20;;;;;;;7.10;6.80;;;;;;;34.23;37.36;100826.53;5020773;28;20030;-63
2022/06/02 08:51:24;;;;;;;7.00;6.70;;;;;;;35.27;34.44;100824.22;5037787;28;20026;-63
2022/06/02 08:54:17;;;;;;;7.15;6.85;;;;;;;36.30;32.38;100821.00;5024919;28;20033;-64
2022/06/02 08:57:06;;;;;;;6.88;6.57;;;;;;;36.35;32.47;100826.28;5030886;28;20044;-64
2022/06/02 08:59:52;;;;;;;7.03;6.72;;;;;;;35.55;33.81;100818.22;5031416;28;20021;-63
2022/06/02 09:03:09;;;;;;;7.07;6.78;;;;;;;35.33;34.71;100819.31;5024999;28;20033;-64
2022/06/02 09:05:45;;;;;;;7.20;6.90;;;;;;;35.80;33.71;100817.22;5020187;28;20025;-65
2022/06/02 09:08:47;;;;;;;7.10;6.80;;;;;;;35.79;33.82;100823.88;5026390;28;20060;-65
2022/06/02 09:11:25;;;;;;;6.90;6.60;;;;;;;35.17;34.65;100816.31;5028124;28;20091;-65
2022/06/02 09:14:30;;;;;;;6.82;6.53;;;;;;;35.49;34.29;100816.81;5026506;28;20052;-65
2022/06/02 09:17:07;;;;;;;6.90;6.60;;;;;;;36.11;32.87;100811.25;4991020;28;20025;-65
2022/06/02 09:19:44;;;;;;;6.75;6.45;;;;;;;34.84;34.49;100803.19;5025113;28;20053;-65
2022/06/02 09:22:10;;;;;;;7.00;6.70;;;;;;;35.32;34.28;100801.13;5028895;28;20040;-64
2022/06/02 09:24:58;;;;;;;6.80;6.50;;;;;;;34.77;35.29;100804.84;5033838;28;20021;-64
2022/06/02 09:28:04;;;;;;;6.90;6.60;;;;;;;34.72;35.22;100797.53;5027982;28;20030;-62
2022/06/02 09:30:51;;;;;;;7.00;6.70;;;;;;;34.58;34.00;100802.47;4979472;28;20038;-64
2022/06/02 09:33:47;;;;;;;6.93;6.63;;;;;;;34.50;33.54;100808.81;5025714;28;20038;-64
2022/06/02 09:36:19;;;;;;;6.70;6.40;;;;;;;34.19;34.23;100798.00;5031937;28;20396;-64
2022/06/02 09:38:57;;;;;;;6.70;6.40;;;;;;;34.15;33.70;100797.84;5023628;28;20022;-63
2022/06/02 09:41:22;;;;;;;6.80;6.50;;;;;;;33.76;35.61;100799.63;5025490;28;20040;-62
2022/06/02 09:44:11;;;;;;;7.00;6.70;;;;;;;33.76;34.58;100794.13;5017515;28;20029;-65
2022/06/02 09:47:00;;;;;;;6.80;6.50;;;;;;;34.76;34.07;100776.47;5025060;28;20191;-64
2022/06/02 09:49:46;;;;;;;7.10;6.80;;;;;;;32.66;37.54;100786.91;5023847;28;20485;-64
2022/06/02 09:52:47;;;;;;;7.30;7.00;;;;;;;33.31;35.60;100785.34;5023873;28;20515;-64
2022/06/02 09:55:37;;;;;;;6.78;6.47;;;;;;;33.21;35.94;100782.91;5030267;28;20065;-64
2022/06/02 09:58:28;;;;;;;6.55;6.25;;;;;;;32.83;36.74;100786.19;5028631;28;20042;-64
2022/06/02 10:01:12;;;;;;;7.13;6.82;;;;;;;33.10;36.64;100770.59;5028003;28;20453;-64
2022/06/02 10:04:10;;;;;;;6.90;6.60;;;;;;;32.83;36.98;100766.09;5028008;28;20806;-64
2022/06/02 10:07:30;;;;;;;6.53;6.22;;;;;;;31.95;39.78;100766.78;5027167;28;20040;-64
2022/06/02 10:10:19;;;;;;;6.60;6.30;;;;;;;31.53;40.94;100766.09;4986098;28;20034;-64
2022/06/02 10:13:14;;;;;;;6.65;6.35;;;;;;;32.05;39.35;100779.44;5023573;28;20033;-65
2022/06/02 10:16:03;;;;;;;6.88;6.57;;;;;;;33.01;37.72;100772.50;5020713;28;20033;-61
2022/06/02 10:18:47;;;;;;;6.68;6.38;;;;;;;32.52;38.49;100775.19;5033224;28;20032;-62
2022/06/02 10:21:24;;;;;;;;;;;;;;;32.40;39.06;100769.50;5029882;28;20034;-60
2022/06/02 10:24:05;;;;;;;6.82;6.53;;;;;;;31.68;40.01;100773.16;5033657;28;19935;-62
2022/06/02 10:27:08;;;;;;;6.80;6.50;;;;;;;32.35;38.46;100775.94;5028675;28;20041;-63
2022/06/02 10:29:45;;;;;;;6.57;6.28;;;;;;;31.28;41.85;100764.72;5040454;28;20053;-61
2022/06/02 10:32:32;;;;;;;6.60;6.30;;;;;;;31.30;42.22;100759.75;5038108;28;20024;-61
2022/06/02 10:35:15;;;;;;;6.70;6.40;;;;;;;31.93;40.96;100765.44;5026094;28;20029;-61
2022/06/02 10:37:54;;;;;;;6.80;6.50;;;;;;;31.33;42.27;100764.59;5029429;28;20022;-62
2022/06/02 10:40:26;;;;;;;6.88;6.57;;;;;;;30.57;43.14;100757.09;5026521;28;20115;-61
2022/06/02 10:43:10;;;;;;;6.68;6.38;;;;;;;31.57;42.37;100753.38;5027012;28;20040;-61
2022/06/02 10:45:35;;;;;;;;;;;;;;;31.92;40.23;100742.69;5023430;28;20037;-62
2022/06/02 10:48:19;;;;;;;7.00;6.70;;;;;;;30.85;42.39;100747.81;5037482;28;19913;-65
2022/06/02 10:51:26;;;;;;;6.85;6.55;;;;;;;31.01;41.24;100743.63;5029813;28;20357;-63
2022/06/02 10:54:32;;;;;;;7.20;6.90;;;;;;;31.83;40.01;100745.38;5022637;28;20034;-63
2022/06/02 10:57:45;;;;;;;7.05;6.75;;;;;;;32.44;37.77;100740.28;5027905;28;20032;-63
2022/06/02 11:00:16;;;;;;;6.97;6.68;;;;;;;32.50;37.76;100733.50;5018621;28;20037;-62
2022/06/02 11:03:19;;;;;;;6.80;6.50;;;;;;;32.25;36.64;100728.69;5026441;28;20025;-63
2022/06/02 11:06:04;;;;;;;6.70;6.40;;;;;;;32.47;37.00;100734.16;5000846;28;20503;-62
2022/06/02 11:08:54;;;;;;;6.82;6.53;;;;;;;32.83;36.47;100728.47;5033125;28;20033;-61
2022/06/02 11:11:33;;;;;;;7.03;6.72;;;;;;;32.75;37.24;100734.72;5027604;28;20259;-62
2022/06/02 11:14:20;;;;;;;6.75;6.45;;;;;;;32.25;36.52;100723.22;5029353;28;20179;-62
2022/06/02 11:17:05;;;;;;;6.70;6.40;;;;;;;32.54;36.45;100717.19;5034586;28;20032;-62
2022/06/02 11:19:52;;;;;;;6.90;6.60;;;;;;;32.61;36.40;100715.63;5026524;28;20064;-61
2022/06/02 11:22:29;;;;;;;6.88;6.57;;;;;;;31.77;39.88;100718.34;5030755;28;20091;-62
2022/06/02 11:25:16;;;;;;;6.97;6.68;;;;;;;32.19;39.64;100717.03;5037019;28;20021;-63
2022/06/02 11:28:00;;;;;;;6.72;6.43;;;;;;;32.88;38.80;100714.59;5027000;28;20030;-62
2022/06/02 11:30:37;;;;;;;6.53;6.22;;;;;;;33.08;37.00;100713.19;5021392;28;20109;-60
2022/06/02 11:33:34;;;;;;;6.80;6.50;;;;;;;32.76;36.62;100706.16;5027460;28;20029;-60
2022/06/02 11:36:24;;;;;;;6.70;6.40;;;;;;;33.38;34.62;100703.22;5021026;28;20037;-60
2022/06/02 11:39:31;;;;;;;6.65;6.35;;;;;;;33.19;34.27;100706.22;5023184;28;20033;-60
2022/06/02 11:41:56;;;;;;;6.97;6.68;;;;;;;32.96;33.68;100696.50;5024551;28;20037;-59
2022/06/02 11:44:56;;;;;;;6.70;6.40;;;;;;;33.48;33.02;100696.56;5027715;28;20489;-61
2022/06/02 11:47:41;;;;;;;6.85;6.55;;;;;;;32.33;34.48;100686.78;5011034;28;20528;-60
2022/06/02 11:50:56;;;;;;;6.95;6.65;;;;;;;32.48;34.08;100675.34;5022212;28;20440;-61
2022/06/02 11:53:41;;;;;;;;;;;;;;;33.21;32.59;100693.00;4994034;28;20069;-61
2022/06/02 11:56:43;;;;;;;6.90;6.60;;;;;;;33.63;31.54;100687.81;5025194;28;19917;-61
2022/06/02 11:59:32;;;;;;;6.65;6.35;;;;;;;33.29;32.26;100668.56;5013841;28;20500;-60
2022/06/02 12:02:47;;;;;;;6.80;6.50;;;;;;;32.59;33.49;100670.38;5014428;28;20450;-63
2022/06/02 12:05:18;;;;;;;6.70;6.40;;;;;;;32.86;34.18;100667.41;5011940;28;20124;-61
2022/06/02 12:08:06;;;;;;;6.70;6.40;;;;;;;32.18;35.90;100671.50;5024803;28;20037;-61
2022/06/02 12:10:59;;;;;;;6.82;6.53;;;;;;;31.19;36.99;100667.06;5017285;28;20495;-61
2022/06/02 12:14:00;;;;;;;6.68;6.38;;;;;;;31.37;37.44;100655.16;5026575;28;20059;-61
2022/06/02 12:16:35;;;;;;;6.78;6.47;;;;;;;31.69;36.16;100664.25;5023138;28;20025;-62
2022/06/02 12:19:29;;;;;;;7.20;6.90;;;;;;;30.86;37.81;100653.56;5027218;28;20033;-61
2022/06/02 12:22:19;;;;;;;6.85;6.55;;;;;;;31.66;36.76;100638.25;5021289;28;20421;-62
2022/06/02 12:24:55;;;;;;;6.68;6.38;;;;;;;30.75;38.17;100646.66;5027967;28;20044;-62
2022/06/02 12:27:49;;;;;;;6.97;6.68;;;;;;;32.14;35.60;100635.63;5032009;28;20091;-61
2022/06/02 12:30:53;;;;;;;7.03;6.72;;;;;;;31.89;37.18;100625.34;5030804;28;20033;-62
2022/06/02 12:33:41;;;;;;;6.72;6.43;;;;;;;32.11;35.06;100630.78;5028892;28;20037;-62
2022/06/02 12:36:51;;;;;;;7.00;6.70;;;;;;;32.10;35.01;100631.91;5031670;28;20529;-59
2022/06/02 12:39:25;;;;;;;6.50;6.20;;;;;;;32.80;33.72;100630.19;5025084;28;20516;-62
2022/06/02 12:42:37;;;;;;;6.90;6.60;;;;;;;32.36;32.97;100631.22;5028839;28;20036;-63
2022/06/02 12:45:33;;;;;;;6.78;6.47;;;;;;;32.52;33.60;100618.66;4999106;28;20152;-61
2022/06/02 12:48:23;;;;;;;6.88;6.57;;;;;;;32.42;33.35;100611.53;5027632;28;20033;-61
2022/06/02 12:51:17;;;;;;;6.25;6.00;;;;;;;31.62;34.28;100616.13;5025122;28;20095;-62
2022/06/02 12:53:43;;;;;;;6.72;6.43;;;;;;;32.45;32.83;100615.56;5032731;28;20404;-61